createdAt,value
2024-02-23T00:02:26.607Z,94212.16
2024-02-23T00:04:54.969Z,94216.78
2024-02-23T00:07:22.921Z,94217.25
2024-02-23T00:09:50.749Z,94220.75
2024-02-23T00:12:18.773Z,94232.53
2024-02-23T00:14:46.649Z,94225.34
2024-02-23T00:17:14.737Z,94227.50
2024-02-23T00:19:44.611Z,94232.69
2024-02-23T00:22:12.452Z,94235.63
2024-02-23T00:24:41.801Z,94249.41
2024-02-23T00:27:09.618Z,94253.56
2024-02-23T00:29:37.849Z,94249.81
2024-02-23T00:32:06.721Z,94264.69
2024-02-23T00:34:34.724Z,94263.41
2024-02-23T00:37:04.618Z,94277.19
2024-02-23T00:39:33.300Z,94269.38
2024-02-23T00:42:01.252Z,94274.13
2024-02-23T00:44:29.111Z,94279.94
2024-02-23T00:46:58.923Z,94279.25
2024-02-23T00:49:26.809Z,94277.22
2024-02-23T00:51:54.636Z,94279.06
2024-02-23T00:54:23.879Z,94268.97
2024-02-23T00:56:53.569Z,94272.03
2024-02-23T00:59:23.225Z,94285.88
2024-02-23T01:01:51.233Z,94290.69
2024-02-23T01:04:19.092Z,94289.84
2024-02-23T01:06:46.969Z,94310.09
2024-02-23T01:09:17.304Z,94301.00
2024-02-23T01:11:46.656Z,94315.63
2024-02-23T01:14:14.636Z,94316.63
2024-02-23T01:16:42.474Z,94314.25
2024-02-23T01:19:10.407Z,94318.84
2024-02-23T01:21:38.326Z,94320.31
2024-02-23T01:24:06.806Z,94331.09
2024-02-23T01:26:35.188Z,94330.56
2024-02-23T01:29:05.381Z,94326.88
2024-02-23T01:31:33.260Z,94327.88
2024-02-23T01:34:01.215Z,94334.97
2024-02-23T01:36:29.128Z,94331.16
2024-02-23T01:38:57.013Z,94333.00
2024-02-23T01:41:24.975Z,94340.63
2024-02-23T01:43:52.962Z,94346.25
2024-02-23T01:46:22.575Z,94345.97
2024-02-23T01:48:50.510Z,94348.41
2024-02-23T01:51:18.780Z,94349.59
2024-02-23T01:53:46.717Z,94349.41
2024-02-23T01:56:19.742Z,94350.63
2024-02-23T01:58:48.846Z,94364.59
2024-02-23T02:01:16.744Z,94378.88
2024-02-23T02:03:46.073Z,94380.13
2024-02-23T02:06:14.619Z,94381.31
2024-02-23T02:08:42.568Z,94392.72
2024-02-23T02:11:11.015Z,94399.44
2024-02-23T02:13:38.906Z,94421.72
2024-02-23T02:16:07.071Z,94408.34
2024-02-23T02:18:35.013Z,94423.81
2024-02-23T02:21:04.359Z,94417.31
2024-02-23T02:23:32.249Z,94417.44
2024-02-23T02:26:00.792Z,94417.31
2024-02-23T02:28:28.637Z,94419.78
2024-02-23T02:30:56.491Z,94420.69
2024-02-23T02:33:25.083Z,94420.69
2024-02-23T02:35:52.999Z,94430.97
2024-02-23T02:38:22.258Z,94431.19
2024-02-23T02:40:50.160Z,94437.00
2024-02-23T02:43:18.013Z,94433.75
2024-02-23T02:45:46.269Z,94434.88
2024-02-23T02:48:14.406Z,94443.50
2024-02-23T02:50:42.540Z,94443.97
2024-02-23T02:53:11.290Z,94441.06
2024-02-23T02:55:44.168Z,94456.50
2024-02-23T02:58:13.032Z,94443.31
2024-02-23T03:00:40.929Z,94448.56
2024-02-23T03:03:08.746Z,94433.78
2024-02-23T03:05:36.740Z,94431.31
2024-02-23T03:08:05.274Z,94428.19
2024-02-23T03:10:33.322Z,94419.56
2024-02-23T03:13:02.520Z,94417.78
2024-02-23T03:15:30.426Z,94409.16
2024-02-23T03:17:58.494Z,94421.47
2024-02-23T03:20:26.415Z,94410.16
2024-02-23T03:22:54.258Z,94405.69
2024-02-23T03:25:22.122Z,94403.22
2024-02-23T03:27:50.281Z,94400.53
2024-02-23T03:30:19.499Z,94405.13
2024-02-23T03:32:48.323Z,94407.56
2024-02-23T03:35:16.453Z,94403.34
2024-02-23T03:37:44.354Z,94409.47
2024-02-23T03:40:13.749Z,94406.47
2024-02-23T03:42:41.731Z,94412.84
2024-02-23T03:45:10.069Z,94411.50
2024-02-23T03:47:40.572Z,94406.25
2024-02-23T03:50:09.381Z,94407.38
2024-02-23T03:52:37.755Z,94408.56
2024-02-23T03:55:06.363Z,94416.19
2024-02-23T03:57:34.474Z,94412.41
2024-02-23T04:00:02.330Z,94413.63
2024-02-23T04:02:42.062Z,94417.88
2024-02-23T04:05:10.174Z,94413.28
2024-02-23T04:07:38.042Z,94419.00
2024-02-23T04:10:06.578Z,94423.03
2024-02-23T04:12:34.452Z,94428.75
2024-02-23T04:15:02.299Z,94421.69
2024-02-23T04:17:30.138Z,94419.00
2024-02-23T04:19:59.604Z,94420.91
2024-02-23T04:22:27.429Z,94422.13
2024-02-23T04:24:56.444Z,94422.47
2024-02-23T04:27:24.350Z,94423.38
2024-02-23T04:29:52.172Z,94434.13
2024-02-23T04:32:20.064Z,94428.97
2024-02-23T04:34:47.954Z,94426.28
2024-02-23T04:37:17.205Z,94425.28
2024-02-23T04:39:46.224Z,94426.16
2024-02-23T04:42:14.122Z,94428.31
2024-02-23T04:44:43.770Z,94417.75
2024-02-23T04:47:11.659Z,94420.56
2024-02-23T04:49:39.612Z,94423.81
2024-02-23T04:52:08.354Z,94422.94
2024-02-23T04:54:37.620Z,94429.09
2024-02-23T04:57:05.584Z,94413.75
2024-02-23T04:59:33.923Z,94414.97
2024-02-23T05:02:01.907Z,94414.06
2024-02-23T05:04:29.759Z,94418.34
2024-02-23T05:06:57.835Z,94413.53
2024-02-23T05:09:25.695Z,94418.56
2024-02-23T05:11:54.926Z,94415.44
2024-02-23T05:14:22.807Z,94411.97
2024-02-23T05:16:50.701Z,94424.25
2024-02-23T05:19:18.713Z,94440.41
2024-02-23T05:21:46.573Z,94432.44
2024-02-23T05:24:14.464Z,94443.53
2024-02-23T05:26:43.610Z,94447.34
2024-02-23T05:29:13.994Z,94457.38
2024-02-23T05:31:50.671Z,94446.88
2024-02-23T05:34:19.477Z,94447.53
2024-02-23T05:36:47.941Z,94432.91
2024-02-23T05:39:16.996Z,94446.66
2024-02-23T05:41:44.815Z,94455.16
2024-02-23T05:44:14.924Z,94461.31
2024-02-23T05:46:44.928Z,94462.88
2024-02-23T05:49:13.365Z,94462.09
2024-02-23T05:51:41.226Z,94453.38
2024-02-23T05:54:09.037Z,94459.41
2024-02-23T05:56:38.384Z,94464.91
2024-02-23T05:59:07.385Z,94466.69
2024-02-23T06:01:36.619Z,94471.72
2024-02-23T06:04:04.556Z,94467.34
2024-02-23T06:06:32.580Z,94462.88
2024-02-23T06:09:01.087Z,94465.91
2024-02-23T06:11:29.385Z,94470.50
2024-02-23T06:13:57.368Z,94475.66
2024-02-23T06:16:25.218Z,94474.41
2024-02-23T06:18:54.500Z,94483.72
2024-02-23T06:21:22.533Z,94486.63
2024-02-23T06:23:50.512Z,94485.63
2024-02-23T06:26:18.414Z,94477.69
2024-02-23T06:28:46.323Z,94478.81
2024-02-23T06:31:15.030Z,94471.53
2024-02-23T06:33:43.088Z,94465.91
2024-02-23T06:36:12.757Z,94470.41
2024-02-23T06:38:40.699Z,94474.31
2024-02-23T06:41:11.810Z,94464.34
2024-02-23T06:43:39.694Z,94468.28
2024-02-23T06:46:09.413Z,94470.75
2024-02-23T06:48:37.898Z,94477.81
2024-02-23T06:51:06.344Z,94483.72
2024-02-23T06:53:35.748Z,94488.56
2024-02-23T06:56:04.088Z,94486.06
2024-02-23T06:58:32.001Z,94483.94
2024-02-23T07:01:00.081Z,94485.28
2024-02-23T07:03:28.053Z,94488.31
2024-02-23T07:05:56.589Z,94498.28
2024-02-23T07:08:24.544Z,94517.66
2024-02-23T07:10:54.442Z,94525.59
2024-02-23T07:13:22.277Z,94517.22
2024-02-23T07:15:50.107Z,94499.31
2024-02-23T07:18:18.241Z,94506.03
2024-02-23T07:20:46.093Z,94506.47
2024-02-23T07:23:14.000Z,94511.41
2024-02-23T07:25:42.235Z,94505.81
2024-02-23T07:28:11.412Z,94508.06
2024-02-23T07:30:39.264Z,94510.94
2024-02-23T07:33:07.332Z,94508.91
2024-02-23T07:35:35.399Z,94513.53
2024-02-23T07:38:03.244Z,94494.16
2024-02-23T07:40:32.974Z,94484.84
2024-02-23T07:43:00.776Z,94485.97
2024-02-23T07:45:29.938Z,94490.88
2024-02-23T07:47:57.994Z,94498.84
2024-02-23T07:50:25.922Z,94508.81
2024-02-23T07:52:53.774Z,94497.03
2024-02-23T07:55:21.672Z,94501.44
2024-02-23T07:57:49.476Z,94491.00
2024-02-23T08:00:17.734Z,94482.94
2024-02-23T08:02:46.994Z,94488.97
2024-02-23T08:05:14.879Z,94497.50
2024-02-23T08:07:42.833Z,94506.81
2024-02-23T08:10:12.792Z,94520.25
2024-02-23T08:12:43.441Z,94528.84
2024-02-23T08:15:11.910Z,94525.28
2024-02-23T08:17:39.899Z,94523.81
2024-02-23T08:20:10.268Z,94528.50
2024-02-23T08:22:38.162Z,94538.59
2024-02-23T08:25:06.779Z,94542.53
2024-02-23T08:27:34.578Z,94531.31
2024-02-23T08:30:02.426Z,94526.28
2024-02-23T08:32:30.577Z,94531.19
2024-02-23T08:35:00.666Z,94541.16
2024-02-23T08:37:30.345Z,94539.84
2024-02-23T08:39:58.509Z,94541.06
2024-02-23T08:42:26.320Z,94559.53
2024-02-23T08:44:55.422Z,94559.78
2024-02-23T08:47:23.354Z,94561.09
2024-02-23T08:49:51.283Z,94557.63
2024-02-23T08:52:20.074Z,94546.19
2024-02-23T08:54:49.255Z,94555.72
2024-02-23T08:57:20.256Z,94558.63
2024-02-23T08:59:48.205Z,94556.84
2024-02-23T09:02:16.220Z,94555.72
2024-02-23T09:04:45.733Z,94557.38
2024-02-23T09:07:13.773Z,94563.66
2024-02-23T09:09:42.100Z,94561.19
2024-02-23T09:12:12.437Z,94567.91
2024-02-23T09:14:42.514Z,94560.72
2024-02-23T09:17:10.998Z,94564.75
2024-02-23T09:19:39.101Z,94555.78
2024-02-23T09:22:07.101Z,94542.31
2024-02-23T09:24:34.904Z,94551.09
2024-02-23T09:27:02.739Z,94561.63
2024-02-23T09:29:32.060Z,94577.56
2024-02-23T09:32:00.029Z,94583.03
2024-02-23T09:34:27.955Z,94584.19
2024-02-23T09:36:55.808Z,94574.97
2024-02-23T09:39:23.746Z,94574.19
2024-02-23T09:41:52.889Z,94580.34
2024-02-23T09:44:21.841Z,94568.66
2024-02-23T09:46:51.471Z,94576.06
2024-02-23T09:49:19.332Z,94572.59
2024-02-23T09:51:47.264Z,94582.59
2024-02-23T09:54:16.942Z,94581.25
2024-02-23T09:56:46.979Z,94576.75
2024-02-23T09:59:15.740Z,94573.84
2024-02-23T10:01:43.678Z,94587.34
2024-02-23T10:04:12.856Z,94580.28
2024-02-23T10:06:40.829Z,94585.66
2024-02-23T10:09:09.016Z,94579.22
2024-02-23T10:11:37.147Z,94583.03
2024-02-23T10:14:05.124Z,94592.00
2024-02-23T10:16:33.000Z,94579.22
2024-02-23T10:19:00.932Z,94580.78
2024-02-23T10:21:30.165Z,94581.34
2024-02-23T10:23:58.026Z,94580.66
2024-02-23T10:26:27.374Z,94587.53
2024-02-23T10:28:56.609Z,94585.03
2024-02-23T10:31:26.316Z,94588.75
2024-02-23T10:33:55.252Z,94587.59
2024-02-23T10:36:25.660Z,94574.97
2024-02-23T10:38:59.939Z,94579.88
2024-02-23T10:41:29.566Z,94577.03
2024-02-23T10:44:00.483Z,94572.19
2024-02-23T10:46:29.720Z,94584.63
2024-02-23T10:48:58.677Z,94589.78
2024-02-23T10:51:26.984Z,94577.97
2024-02-23T10:53:57.059Z,94574.34
2024-02-23T10:56:26.967Z,94574.38
2024-02-23T10:58:54.927Z,94576.91
2024-02-23T11:01:24.507Z,94584.53
2024-02-23T11:03:54.277Z,94586.34
2024-02-23T11:06:23.148Z,94589.44
2024-02-23T11:08:52.192Z,94591.22
2024-02-23T11:11:21.560Z,94581.94
2024-02-23T11:13:49.447Z,94581.47
2024-02-23T11:16:24.646Z,94566.31
2024-02-23T11:19:05.844Z,94566.56
2024-02-23T11:21:38.748Z,94573.91
2024-02-23T11:24:07.575Z,94581.19
2024-02-23T11:26:39.375Z,94575.56
2024-02-23T11:29:12.563Z,94568.25
2024-02-23T11:31:46.982Z,94573.06
2024-02-23T11:34:14.875Z,94562.94
2024-02-23T11:36:42.957Z,94573.38
2024-02-23T11:39:12.442Z,94571.78
2024-02-23T11:41:42.619Z,94577.53
2024-02-23T11:44:11.130Z,94566.44
2024-02-23T11:46:39.007Z,94574.13
2024-02-23T11:49:06.869Z,94557.72
2024-02-23T11:51:35.784Z,94561.28
2024-02-23T11:54:04.151Z,94559.28
2024-02-23T11:56:32.258Z,94556.44
2024-02-23T11:59:01.605Z,94550.09
2024-02-23T12:01:31.518Z,94542.16
2024-02-23T12:03:59.424Z,94533.75
2024-02-23T12:06:30.209Z,94535.94
2024-02-23T12:08:59.081Z,94539.94
2024-02-23T12:11:27.225Z,94533.94
2024-02-23T12:13:56.110Z,94529.88
2024-02-23T12:16:27.930Z,94531.00
2024-02-23T12:18:57.398Z,94520.72
2024-02-23T12:21:25.988Z,94527.78
2024-02-23T12:23:53.854Z,94528.91
2024-02-23T12:26:22.076Z,94528.66
2024-02-23T12:28:49.930Z,94533.44
2024-02-23T12:31:17.785Z,94538.91
2024-02-23T12:33:49.523Z,94525.19
2024-02-23T12:36:18.695Z,94526.97
2024-02-23T12:38:46.616Z,94523.88
2024-02-23T12:41:15.378Z,94530.56
2024-02-23T12:43:45.215Z,94533.34
2024-02-23T12:46:15.279Z,94521.84
2024-02-23T12:48:43.994Z,94536.47
2024-02-23T12:51:14.319Z,94543.16
2024-02-23T12:53:43.328Z,94542.47
2024-02-23T12:56:12.570Z,94543.50
2024-02-23T12:58:41.834Z,94530.59
2024-02-23T13:01:12.182Z,94544.38
2024-02-23T13:03:42.799Z,94537.56
2024-02-23T13:06:11.227Z,94531.56
2024-02-23T13:08:41.822Z,94525.06
2024-02-23T13:11:09.907Z,94525.06
2024-02-23T13:13:39.185Z,94530.59
2024-02-23T13:16:09.500Z,94513.72
2024-02-23T13:18:37.691Z,94510.16
2024-02-23T13:21:06.171Z,94507.91
2024-02-23T13:23:34.169Z,94507.81
2024-02-23T13:26:04.313Z,94518.00
2024-02-23T13:28:32.331Z,94503.47
2024-02-23T13:31:00.160Z,94519.94
2024-02-23T13:33:28.122Z,94513.91
2024-02-23T13:35:56.175Z,94509.31
2024-02-23T13:38:24.241Z,94512.78
2024-02-23T13:40:52.693Z,94514.88
2024-02-23T13:43:21.930Z,94492.88
2024-02-23T13:45:52.311Z,94473.81
2024-02-23T13:48:20.789Z,94474.94
2024-02-23T13:50:49.564Z,94467.81
2024-02-23T13:53:17.879Z,94467.53
2024-02-23T13:55:46.184Z,94452.41
2024-02-23T13:58:14.324Z,94442.94
2024-02-23T14:00:43.584Z,94436.97
2024-02-23T14:03:17.935Z,94459.63
2024-02-23T14:05:47.261Z,94490.41
2024-02-23T14:08:15.710Z,94487.00
2024-02-23T14:10:44.362Z,94485.22
2024-02-23T14:13:12.548Z,94481.41
2024-02-23T14:15:40.404Z,94505.13
2024-02-23T14:18:09.626Z,94512.34
2024-02-23T14:20:37.505Z,94511.06
2024-02-23T14:23:05.658Z,94522.19
2024-02-23T14:25:33.496Z,94510.13
2024-02-23T14:28:01.346Z,94481.31
2024-02-23T14:30:29.186Z,94465.22
2024-02-23T14:32:57.265Z,94458.44
2024-02-23T14:35:26.593Z,94474.72
2024-02-23T14:37:54.567Z,94501.16
2024-02-23T14:40:22.423Z,94516.03
2024-02-23T14:42:50.360Z,94514.53
2024-02-23T14:45:18.393Z,94509.44
2024-02-23T14:47:46.862Z,94496.03
2024-02-23T14:50:15.300Z,94506.03
2024-02-23T14:52:45.409Z,94502.81
2024-02-23T14:55:13.456Z,94492.28
2024-02-23T14:57:41.736Z,94478.44
2024-02-23T15:00:10.620Z,94478.19
2024-02-23T15:02:38.642Z,94466.00
2024-02-23T15:05:08.607Z,94460.63
2024-02-23T15:07:36.771Z,94450.19
2024-02-23T15:10:09.239Z,94446.63
2024-02-23T15:12:37.446Z,94450.34
2024-02-23T15:15:07.772Z,94458.72
2024-02-23T15:17:35.826Z,94462.97
2024-02-23T15:20:04.288Z,94480.38
2024-02-23T15:22:33.058Z,94466.38
2024-02-23T15:25:01.334Z,94449.22
2024-02-23T15:27:30.618Z,94445.25
2024-02-23T15:29:58.438Z,94432.88
2024-02-23T15:32:26.470Z,94437.06
2024-02-23T15:34:54.335Z,94443.59
2024-02-23T15:37:22.136Z,94465.81
2024-02-23T15:39:49.930Z,94466.59
2024-02-23T15:42:21.211Z,94447.31
2024-02-23T15:44:50.685Z,94446.44
2024-02-23T15:47:18.662Z,94445.09
2024-02-23T15:50:07.774Z,94461.09
2024-02-23T15:52:34.509Z,94469.44
2024-02-23T15:55:02.400Z,94458.91
2024-02-23T15:57:30.195Z,94470.72
2024-02-23T16:00:03.263Z,94479.22
2024-02-23T16:02:33.195Z,94477.91
2024-02-23T16:05:01.212Z,94476.66
2024-02-23T16:07:29.238Z,94467.63
2024-02-23T16:09:57.156Z,94451.50
2024-02-23T16:12:24.034Z,94447.16
2024-02-23T16:14:51.972Z,94455.47
2024-02-23T16:17:21.221Z,94463.88
2024-02-23T16:19:49.134Z,94468.81
2024-02-23T16:22:17.086Z,94469.84
2024-02-23T16:24:46.670Z,94469.19
2024-02-23T16:27:15.549Z,94457.78
2024-02-23T16:29:43.405Z,94449.06
2024-02-23T16:32:11.357Z,94453.09
2024-02-23T16:34:40.879Z,94462.53
2024-02-23T16:37:08.712Z,94450.53
2024-02-23T16:39:38.715Z,94436.13
2024-02-23T16:42:07.511Z,94445.97
2024-02-23T16:44:37.252Z,94483.03
2024-02-23T16:47:05.614Z,94497.31
2024-02-23T16:49:33.512Z,94498.84
2024-02-23T16:52:02.774Z,94507.59
2024-02-23T16:54:30.672Z,94500.19
2024-02-23T16:56:59.134Z,94489.66
2024-02-23T16:59:27.006Z,94481.03
2024-02-23T17:01:56.579Z,94479.34
2024-02-23T17:04:26.280Z,94460.34
2024-02-23T17:06:54.107Z,94427.50
2024-02-23T17:09:23.317Z,94416.97
2024-02-23T17:11:51.186Z,94422.69
2024-02-23T17:14:19.248Z,94448.44
2024-02-23T17:16:47.122Z,94459.19
2024-02-23T17:19:14.976Z,94462.88
2024-02-23T17:21:42.874Z,94472.63
2024-02-23T17:24:10.720Z,94468.69
2024-02-23T17:26:40.048Z,94455.38
2024-02-23T17:29:08.557Z,94450.69
2024-02-23T17:31:36.777Z,94459.19
2024-02-23T17:34:04.965Z,94465.00
2024-02-23T17:36:32.861Z,94479.53
2024-02-23T17:39:00.720Z,94482.56
2024-02-23T17:41:28.660Z,94466.00
2024-02-23T17:43:59.512Z,94458.63
2024-02-23T17:46:27.449Z,94451.88
2024-02-23T17:48:55.454Z,94442.47
2024-02-23T17:51:23.407Z,94447.72
2024-02-23T17:53:51.723Z,94456.44
2024-02-23T17:56:19.664Z,94464.50
2024-02-23T17:58:47.497Z,94454.06
2024-02-23T18:01:18.939Z,94460.00
2024-02-23T18:03:46.837Z,94459.88
2024-02-23T18:06:16.559Z,94467.50
2024-02-23T18:08:44.623Z,94465.91
2024-02-23T18:11:12.719Z,94470.38
2024-02-23T18:13:42.562Z,94461.53
2024-02-23T18:16:14.435Z,94464.88
2024-02-23T18:18:43.679Z,94475.16
2024-02-23T18:21:12.011Z,94482.97
2024-02-23T18:23:40.080Z,94475.25
2024-02-23T18:26:08.029Z,94472.44
2024-02-23T18:28:35.860Z,94459.34
2024-02-23T18:31:04.023Z,94455.06
2024-02-23T18:33:31.880Z,94465.00
2024-02-23T18:36:01.089Z,94457.13
2024-02-23T18:38:29.151Z,94462.34
2024-02-23T18:40:59.066Z,94473.88
2024-02-23T18:43:27.030Z,94483.31
2024-02-23T18:45:54.854Z,94495.59
2024-02-23T18:48:22.745Z,94473.50
2024-02-23T18:50:51.785Z,94472.44
2024-02-23T18:53:22.048Z,94473.88
2024-02-23T18:55:50.175Z,94471.53
2024-02-23T18:58:18.395Z,94481.00
2024-02-23T19:00:46.251Z,94481.38
2024-02-23T19:03:14.419Z,94480.00
2024-02-23T19:05:42.295Z,94480.66
2024-02-23T19:08:10.402Z,94475.69
2024-02-23T19:10:41.044Z,94474.97
2024-02-23T19:13:08.996Z,94469.97
2024-02-23T19:15:38.247Z,94464.59
2024-02-23T19:18:06.641Z,94455.66
2024-02-23T19:20:34.664Z,94469.06
2024-02-23T19:23:04.552Z,94468.59
2024-02-23T19:25:32.687Z,94462.09
2024-02-23T19:28:01.941Z,94460.53
2024-02-23T19:30:30.242Z,94467.75
2024-02-23T19:32:58.321Z,94457.47
2024-02-23T19:35:26.531Z,94458.88
2024-02-23T19:37:54.455Z,94445.59
2024-02-23T19:40:23.570Z,94446.72
2024-02-23T19:42:52.092Z,94447.03
2024-02-23T19:45:21.366Z,94445.78
2024-02-23T19:47:49.433Z,94452.25
2024-02-23T19:50:17.718Z,94454.59
2024-02-23T19:52:45.641Z,94452.75
2024-02-23T19:55:13.525Z,94449.25
2024-02-23T19:57:41.565Z,94460.63
2024-02-23T20:00:10.484Z,94463.31
2024-02-23T20:02:39.918Z,94460.94
2024-02-23T20:05:09.104Z,94458.25
2024-02-23T20:07:37.031Z,94456.41
2024-02-23T20:10:06.852Z,94453.25
2024-02-23T20:12:34.867Z,94462.06
2024-02-23T20:15:04.329Z,94463.97
2024-02-23T20:17:33.788Z,94457.69
2024-02-23T20:20:04.745Z,94453.44
2024-02-23T20:22:32.572Z,94452.97
2024-02-23T20:25:01.752Z,94444.47
2024-02-23T20:27:29.591Z,94444.94
2024-02-23T20:29:57.433Z,94440.03
2024-02-23T20:32:30.055Z,94443.34
2024-02-23T20:35:00.693Z,94438.97
2024-02-23T20:37:30.703Z,94438.38
2024-02-23T20:39:58.494Z,94437.16
2024-02-23T20:42:26.287Z,94433.41
2024-02-23T20:44:54.099Z,94427.13
2024-02-23T20:47:21.934Z,94425.75
2024-02-23T20:49:49.838Z,94426.38
2024-02-23T20:52:19.360Z,94433.22
2024-02-23T20:54:49.325Z,94424.88
2024-02-23T20:57:16.316Z,94434.84
2024-02-23T20:59:44.414Z,94435.38
2024-02-23T21:02:13.384Z,94436.50
2024-02-23T21:04:41.945Z,94441.69
2024-02-23T21:07:09.758Z,94447.50
2024-02-23T21:09:37.625Z,94450.06
2024-02-23T21:12:07.795Z,94441.53
2024-02-23T21:14:36.318Z,94460.59
2024-02-23T21:17:04.238Z,94459.34
2024-02-23T21:19:32.093Z,94453.53
2024-02-23T21:22:00.556Z,94454.94
2024-02-23T21:24:28.415Z,94451.84
2024-02-23T21:26:57.981Z,94452.03
2024-02-23T21:29:27.253Z,94451.41
2024-02-23T21:31:56.297Z,94440.72
2024-02-23T21:34:24.309Z,94435.03
2024-02-23T21:36:52.177Z,94445.44
2024-02-23T21:39:19.980Z,94450.00
2024-02-23T21:41:47.892Z,94443.53
2024-02-23T21:44:17.727Z,94455.47
2024-02-23T21:46:47.088Z,94448.25
2024-02-23T21:49:14.917Z,94451.41
2024-02-23T21:51:42.717Z,94449.34
2024-02-23T21:54:10.549Z,94444.16
2024-02-23T21:56:38.438Z,94457.38
2024-02-23T21:59:06.373Z,94465.28
2024-02-23T22:01:35.567Z,94466.50
2024-02-23T22:04:05.331Z,94467.78
2024-02-23T22:06:33.214Z,94476.56
2024-02-23T22:09:01.097Z,94468.41
2024-02-23T22:11:28.982Z,94470.91
2024-02-23T22:13:56.833Z,94480.19
2024-02-23T22:16:24.660Z,94476.09
2024-02-23T22:18:52.574Z,94480.97
2024-02-23T22:21:22.161Z,94475.91
2024-02-23T22:23:50.406Z,94474.84
2024-02-23T22:26:18.232Z,94479.38
2024-02-23T22:28:46.126Z,94469.47
2024-02-23T22:31:13.914Z,94462.69
2024-02-23T22:33:41.867Z,94461.44
2024-02-23T22:36:10.149Z,94467.38
2024-02-23T22:38:42.701Z,94469.13
2024-02-23T22:41:12.575Z,94470.03
2024-02-23T22:43:41.262Z,94467.50
2024-02-23T22:46:09.073Z,94474.72
2024-02-23T22:48:37.080Z,94472.03
2024-02-23T22:51:05.020Z,94467.59
2024-02-23T22:53:35.561Z,94469.31
2024-02-23T22:56:05.436Z,94467.75
2024-02-23T22:58:33.237Z,94475.75
2024-02-23T23:01:01.060Z,94472.59
2024-02-23T23:03:28.919Z,94474.00
2024-02-23T23:05:57.147Z,94478.84
2024-02-23T23:08:25.181Z,94467.06
2024-02-23T23:10:53.314Z,94473.13
2024-02-23T23:13:22.509Z,94478.75
2024-02-23T23:15:50.437Z,94489.56
2024-02-23T23:18:18.322Z,94480.78
2024-02-23T23:20:46.202Z,94485.91
2024-02-23T23:23:14.063Z,94482.97
2024-02-23T23:25:41.863Z,94474.19
2024-02-23T23:28:09.653Z,94473.50
2024-02-23T23:30:38.857Z,94467.97
2024-02-23T23:33:09.033Z,94478.63
2024-02-23T23:35:36.950Z,94474.53
2024-02-23T23:38:05.421Z,94476.09
2024-02-23T23:40:33.257Z,94482.69
2024-02-23T23:43:01.050Z,94485.66
2024-02-23T23:45:28.887Z,94482.22
2024-02-23T23:47:58.175Z,94491.59
2024-02-23T23:50:26.108Z,94488.91
2024-02-23T23:52:53.973Z,94496.44
2024-02-23T23:55:21.881Z,94508.63
2024-02-23T23:57:49.702Z,94504.31
